createdAt,value
2022-08-26T00:01:53.718Z,59.03
2022-08-26T00:04:23.753Z,58.69
2022-08-26T00:06:52.133Z,59.11
2022-08-26T00:09:20.413Z,58.95
2022-08-26T00:11:48.330Z,59.50
2022-08-26T00:14:19.373Z,59.26
2022-08-26T00:16:48.811Z,58.89
2022-08-26T00:19:17.890Z,59.17
2022-08-26T00:21:48.670Z,59.31
2022-08-26T00:24:17.564Z,59.11
2022-08-26T00:26:45.515Z,59.15
2022-08-26T00:29:14.142Z,59.07
2022-08-26T00:31:42.951Z,59.15
2022-08-26T00:34:13.894Z,59.00
2022-08-26T00:36:41.924Z,58.89
2022-08-26T00:39:12.518Z,58.80
2022-08-26T00:41:40.756Z,58.59
2022-08-26T00:44:09.082Z,58.38
2022-08-26T00:46:38.289Z,58.74
2022-08-26T00:49:12.027Z,58.60
2022-08-26T00:51:44.439Z,58.88
2022-08-26T00:54:14.903Z,58.81
2022-08-26T00:56:44.648Z,58.49
2022-08-26T00:59:15.190Z,58.98
2022-08-26T01:01:45.918Z,58.98
2022-08-26T01:04:15.062Z,59.03
2022-08-26T01:06:44.374Z,59.08
2022-08-26T01:09:12.557Z,58.55
2022-08-26T01:11:41.855Z,58.94
2022-08-26T01:14:11.810Z,58.93
2022-08-26T01:16:39.818Z,58.73
2022-08-26T01:19:14.972Z,59.10
2022-08-26T01:21:45.833Z,58.92
2022-08-26T01:24:15.144Z,58.84
2022-08-26T01:26:43.580Z,58.95
2022-08-26T01:29:14.210Z,59.03
2022-08-26T01:31:43.410Z,58.80
2022-08-26T01:34:13.777Z,59.19
2022-08-26T01:36:41.960Z,59.10
2022-08-26T01:39:10.397Z,59.21
2022-08-26T01:41:40.609Z,59.36
2022-08-26T01:44:15.765Z,59.41
2022-08-26T01:46:43.895Z,59.26
2022-08-26T01:49:11.853Z,59.61
2022-08-26T01:51:39.793Z,59.76
2022-08-26T01:54:11.833Z,59.83
2022-08-26T01:56:41.617Z,59.73
2022-08-26T01:59:11.050Z,59.71
2022-08-26T02:01:40.299Z,59.42
2022-08-26T02:04:13.525Z,59.26
2022-08-26T02:06:41.507Z,59.14
2022-08-26T02:09:09.472Z,59.00
2022-08-26T02:11:38.219Z,59.15
2022-08-26T02:14:11.735Z,58.95
2022-08-26T02:16:42.208Z,59.28
2022-08-26T02:19:10.740Z,59.22
2022-08-26T02:21:44.934Z,59.33
2022-08-26T02:24:15.114Z,58.89
2022-08-26T02:26:43.125Z,59.27
2022-08-26T02:29:14.561Z,59.34
2022-08-26T02:31:42.938Z,58.84
2022-08-26T02:34:11.753Z,59.87
2022-08-26T02:36:39.711Z,60.29
2022-08-26T02:39:07.813Z,59.80
2022-08-26T02:41:36.334Z,59.81
2022-08-26T02:44:14.528Z,59.76
2022-08-26T02:46:46.860Z,59.94
2022-08-26T02:49:15.296Z,59.99
2022-08-26T02:51:45.044Z,60.22
2022-08-26T02:54:13.617Z,59.97
2022-08-26T02:56:41.583Z,60.03
2022-08-26T02:59:12.349Z,59.83
2022-08-26T03:01:41.805Z,59.80
2022-08-26T03:04:11.448Z,59.95
2022-08-26T03:06:40.692Z,59.74
2022-08-26T03:09:09.581Z,60.06
2022-08-26T03:11:37.837Z,59.63
2022-08-26T03:14:05.779Z,59.65
2022-08-26T03:16:34.407Z,60.05
2022-08-26T03:19:03.999Z,59.72
2022-08-26T03:21:31.991Z,59.92
2022-08-26T03:24:00.327Z,60.06
2022-08-26T03:26:28.512Z,60.03
2022-08-26T03:29:15.242Z,59.93
2022-08-26T03:31:47.118Z,59.78
2022-08-26T03:34:17.260Z,59.63
2022-08-26T03:36:45.765Z,59.91
2022-08-26T03:39:13.904Z,59.66
2022-08-26T03:41:41.933Z,59.83
2022-08-26T03:44:09.970Z,60.06
2022-08-26T03:46:38.478Z,60.35
2022-08-26T03:49:06.546Z,60.13
2022-08-26T03:51:38.726Z,60.16
2022-08-26T03:54:08.214Z,60.06
2022-08-26T03:56:36.706Z,59.96
2022-08-26T03:59:04.967Z,60.07
2022-08-26T04:01:35.835Z,60.45
2022-08-26T04:04:04.904Z,60.62
2022-08-26T04:06:37.973Z,60.10
2022-08-26T04:09:07.130Z,59.86
2022-08-26T04:11:37.810Z,60.00
2022-08-26T04:14:07.995Z,60.14
2022-08-26T04:16:36.314Z,60.56
2022-08-26T04:19:04.297Z,60.54
2022-08-26T04:21:32.504Z,60.54
2022-08-26T04:24:03.425Z,59.99
2022-08-26T04:26:36.927Z,60.39
2022-08-26T04:29:08.532Z,60.50
2022-08-26T04:31:39.937Z,59.88
2022-08-26T04:34:08.211Z,59.75
2022-08-26T04:36:38.861Z,60.34
2022-08-26T04:39:08.975Z,60.05
2022-08-26T04:41:36.894Z,59.75
2022-08-26T04:44:06.441Z,59.73
2022-08-26T04:46:34.437Z,60.33
2022-08-26T04:49:03.184Z,60.30
2022-08-26T04:51:31.163Z,60.67
2022-08-26T04:53:59.338Z,60.61
2022-08-26T04:56:30.051Z,60.36
2022-08-26T04:58:58.089Z,60.15
2022-08-26T05:01:26.150Z,60.38
2022-08-26T05:03:54.846Z,60.14
2022-08-26T05:06:22.861Z,60.27
2022-08-26T05:08:50.936Z,60.08
2022-08-26T05:11:21.124Z,60.00
2022-08-26T05:13:51.434Z,60.36
2022-08-26T05:16:19.632Z,59.87
2022-08-26T05:18:48.229Z,59.91
2022-08-26T05:21:20.259Z,60.06
2022-08-26T05:23:48.501Z,59.91
2022-08-26T05:26:17.407Z,59.83
2022-08-26T05:28:54.698Z,59.73
2022-08-26T05:31:24.635Z,60.11
2022-08-26T05:33:52.776Z,59.75
2022-08-26T05:36:23.028Z,60.26
2022-08-26T05:38:50.988Z,60.27
2022-08-26T05:41:19.996Z,60.43
2022-08-26T05:43:47.877Z,60.35
2022-08-26T05:46:18.246Z,60.25
2022-08-26T05:48:46.836Z,60.15
2022-08-26T05:51:15.376Z,60.45
2022-08-26T05:53:54.605Z,60.27
2022-08-26T05:56:24.830Z,60.46
2022-08-26T05:58:52.992Z,60.37
2022-08-26T06:01:24.114Z,60.61
2022-08-26T06:03:53.114Z,60.47
2022-08-26T06:06:27.802Z,60.21
2022-08-26T06:08:57.935Z,60.49
2022-08-26T06:11:26.884Z,60.00
2022-08-26T06:13:54.838Z,60.03
2022-08-26T06:16:24.655Z,60.47
2022-08-26T06:18:53.232Z,59.98
2022-08-26T06:21:22.306Z,59.73
2022-08-26T06:24:09.827Z,60.32
2022-08-26T06:26:38.141Z,59.95
2022-08-26T06:29:06.387Z,59.68
2022-08-26T06:31:36.045Z,59.84
2022-08-26T06:34:10.562Z,59.61
2022-08-26T06:36:39.504Z,60.13
2022-08-26T06:39:09.489Z,59.65
2022-08-26T06:41:41.429Z,59.85
2022-08-26T06:44:12.257Z,59.86
2022-08-26T06:46:41.699Z,59.68
2022-08-26T06:49:12.449Z,59.72
2022-08-26T06:51:40.880Z,59.74
2022-08-26T06:54:09.003Z,59.79
2022-08-26T06:56:39.083Z,59.92
2022-08-26T06:59:07.759Z,59.52
2022-08-26T07:01:36.800Z,59.50
2022-08-26T07:04:10.660Z,59.29
2022-08-26T07:06:40.388Z,59.62
2022-08-26T07:09:09.952Z,59.47
2022-08-26T07:11:38.352Z,59.47
2022-08-26T07:14:06.333Z,59.34
2022-08-26T07:16:34.459Z,59.33
2022-08-26T07:19:10.970Z,59.22
2022-08-26T07:21:42.216Z,59.48
2022-08-26T07:24:11.051Z,59.34
2022-08-26T07:26:42.991Z,59.41
2022-08-26T07:29:11.616Z,59.42
2022-08-26T07:31:42.454Z,59.29
2022-08-26T07:34:11.102Z,59.30
2022-08-26T07:36:40.416Z,59.22
2022-08-26T07:39:08.894Z,59.02
2022-08-26T07:41:37.658Z,59.45
2022-08-26T07:44:06.231Z,59.29
2022-08-26T07:46:36.396Z,59.21
2022-08-26T07:49:04.458Z,59.05
2022-08-26T07:51:33.288Z,59.15
2022-08-26T07:54:02.577Z,59.39
2022-08-26T07:56:30.752Z,59.47
2022-08-26T07:58:59.306Z,58.95
2022-08-26T08:01:27.399Z,59.28
2022-08-26T08:03:56.091Z,59.30
2022-08-26T08:06:27.147Z,59.15
2022-08-26T08:08:56.124Z,59.22
2022-08-26T08:11:27.175Z,59.12
2022-08-26T08:13:56.712Z,59.26
2022-08-26T08:16:25.886Z,59.34
2022-08-26T08:18:54.111Z,59.25
2022-08-26T08:21:23.886Z,59.41
2022-08-26T08:23:52.570Z,59.43
2022-08-26T08:26:20.494Z,59.53
2022-08-26T08:28:49.928Z,59.45
2022-08-26T08:31:33.235Z,59.42
2022-08-26T08:34:09.682Z,59.29
2022-08-26T08:36:37.591Z,59.75
2022-08-26T08:39:06.594Z,59.50
2022-08-26T08:41:47.704Z,59.32
2022-08-26T08:44:19.221Z,59.15
2022-08-26T08:46:47.497Z,59.05
2022-08-26T08:49:15.974Z,59.41
2022-08-26T08:51:48.058Z,59.16
2022-08-26T08:54:15.983Z,59.20
2022-08-26T08:56:46.784Z,59.09
2022-08-26T08:59:17.885Z,58.95
2022-08-26T09:01:52.257Z,58.88
2022-08-26T09:04:37.742Z,58.66
2022-08-26T09:07:06.263Z,58.65
2022-08-26T09:09:35.893Z,58.59
2022-08-26T09:12:04.009Z,58.16
2022-08-26T09:14:33.692Z,58.37
2022-08-26T09:17:04.854Z,57.95
2022-08-26T09:19:35.895Z,58.37
2022-08-26T09:22:08.757Z,57.87
2022-08-26T09:24:42.089Z,57.67
2022-08-26T09:27:35.371Z,57.59
2022-08-26T09:30:08.241Z,57.70
2022-08-26T09:32:39.776Z,57.82
2022-08-26T09:35:08.699Z,57.61
2022-08-26T09:37:38.462Z,57.61
2022-08-26T09:40:29.616Z,57.68
2022-08-26T09:43:16.138Z,57.34
2022-08-26T09:45:58.399Z,57.55
2022-08-26T09:48:32.297Z,57.45
2022-08-26T09:51:04.749Z,57.65
2022-08-26T09:53:34.346Z,57.69
2022-08-26T09:56:17.369Z,57.44
2022-08-26T09:58:47.163Z,57.57
2022-08-26T10:01:32.995Z,57.54
2022-08-26T10:04:06.295Z,57.56
2022-08-26T10:06:36.177Z,57.60
2022-08-26T10:09:08.323Z,57.06
2022-08-26T10:11:40.832Z,57.08
2022-08-26T10:14:11.170Z,57.28
2022-08-26T10:16:44.589Z,57.12
2022-08-26T10:19:13.746Z,57.26
2022-08-26T10:21:49.448Z,56.88
2022-08-26T10:24:23.554Z,56.87
2022-08-26T10:26:58.633Z,57.25
2022-08-26T10:29:30.758Z,56.81
2022-08-26T10:32:03.743Z,56.74
2022-08-26T10:34:32.841Z,56.55
2022-08-26T10:37:14.453Z,56.33
2022-08-26T10:39:47.887Z,56.10
2022-08-26T10:42:19.922Z,55.95
2022-08-26T10:44:47.879Z,56.07
2022-08-26T10:47:21.840Z,55.90
2022-08-26T10:49:50.913Z,55.90
2022-08-26T10:52:21.779Z,55.56
2022-08-26T10:54:55.967Z,55.67
2022-08-26T10:57:24.614Z,55.58
2022-08-26T10:59:57.285Z,55.63
2022-08-26T11:02:29.684Z,55.45
2022-08-26T11:04:58.717Z,55.84
2022-08-26T11:07:46.093Z,55.47
2022-08-26T11:10:54.689Z,55.65
2022-08-26T11:13:59.390Z,55.51
2022-08-26T11:16:34.933Z,55.67
2022-08-26T11:19:04.546Z,55.46
2022-08-26T11:21:49.524Z,55.39
2022-08-26T11:24:44.586Z,55.42
2022-08-26T11:27:28.159Z,55.46
2022-08-26T11:29:58.020Z,55.31
2022-08-26T11:32:26.929Z,55.31
2022-08-26T11:34:58.342Z,55.54
2022-08-26T11:37:32.323Z,55.27
2022-08-26T11:40:00.669Z,55.36
2022-08-26T11:42:37.018Z,55.19
2022-08-26T11:45:05.184Z,55.05
2022-08-26T11:47:33.941Z,55.26
2022-08-26T11:50:11.267Z,55.22
2022-08-26T11:52:39.379Z,55.18
2022-08-26T11:55:09.132Z,55.40
2022-08-26T11:57:41.836Z,55.26
2022-08-26T12:00:13.577Z,55.53
2022-08-26T12:02:41.658Z,55.50
2022-08-26T12:05:11.075Z,55.66
2022-08-26T12:07:39.273Z,55.26
2022-08-26T12:10:11.470Z,55.39
2022-08-26T12:12:43.253Z,55.19
2022-08-26T12:15:15.021Z,55.52
2022-08-26T12:17:43.317Z,55.76
2022-08-26T12:20:45.811Z,55.34
2022-08-26T12:23:28.162Z,55.46
2022-08-26T12:26:04.817Z,55.65
2022-08-26T12:28:33.203Z,55.72
2022-08-26T12:31:02.468Z,55.98
2022-08-26T12:33:30.408Z,56.09
2022-08-26T12:36:00.767Z,55.82
2022-08-26T12:38:28.793Z,55.70
2022-08-26T12:40:56.937Z,55.61
2022-08-26T12:43:39.365Z,55.51
2022-08-26T12:46:07.777Z,55.20
2022-08-26T12:48:37.788Z,55.43
2022-08-26T12:51:09.238Z,55.44
2022-08-26T12:53:42.259Z,55.25
2022-08-26T12:56:20.933Z,55.27
2022-08-26T12:59:05.394Z,54.77
2022-08-26T13:01:43.941Z,55.11
2022-08-26T13:04:34.788Z,54.38
2022-08-26T13:07:24.216Z,54.87
2022-08-26T13:09:52.962Z,54.50
2022-08-26T13:12:28.462Z,54.52
2022-08-26T13:14:58.835Z,54.19
2022-08-26T13:17:27.238Z,54.65
2022-08-26T13:19:57.141Z,54.66
2022-08-26T13:22:28.365Z,54.32
2022-08-26T13:24:57.203Z,54.38
2022-08-26T13:27:26.262Z,53.82
2022-08-26T13:29:54.420Z,54.14
2022-08-26T13:32:26.861Z,54.25
2022-08-26T13:34:55.853Z,53.97
2022-08-26T13:37:29.300Z,53.83
2022-08-26T13:40:06.373Z,52.99
2022-08-26T13:42:34.653Z,53.05
2022-08-26T13:45:02.743Z,53.10
2022-08-26T13:47:30.779Z,53.15
2022-08-26T13:49:58.820Z,52.76
2022-08-26T13:52:30.141Z,52.74
2022-08-26T13:54:58.424Z,52.72
2022-08-26T13:57:28.455Z,53.00
2022-08-26T13:59:58.986Z,53.50
2022-08-26T14:02:27.040Z,53.92
2022-08-26T14:04:55.391Z,53.66
2022-08-26T14:07:23.450Z,53.72
2022-08-26T14:09:51.385Z,53.32
2022-08-26T14:12:19.389Z,53.31
2022-08-26T14:14:48.746Z,53.72
2022-08-26T14:17:19.138Z,53.38
2022-08-26T14:19:48.207Z,53.70
2022-08-26T14:22:16.602Z,53.66
2022-08-26T14:24:44.543Z,53.49
2022-08-26T14:27:12.743Z,53.03
2022-08-26T14:29:40.733Z,52.99
2022-08-26T14:32:14.525Z,52.40
2022-08-26T14:34:42.515Z,52.07
2022-08-26T14:37:13.523Z,50.95
2022-08-26T14:39:43.208Z,49.44
2022-08-26T14:42:11.183Z,48.08
2022-08-26T14:44:40.125Z,47.78
2022-08-26T14:47:09.514Z,48.44
2022-08-26T14:49:37.456Z,48.93
2022-08-26T14:52:05.616Z,49.79
2022-08-26T14:54:32.579Z,51.34
2022-08-26T14:57:03.566Z,52.01
2022-08-26T14:59:32.759Z,52.09
2022-08-26T15:02:01.098Z,52.38
2022-08-26T15:04:30.665Z,53.03
2022-08-26T15:06:59.767Z,52.75
2022-08-26T15:09:27.860Z,53.40
2022-08-26T15:11:55.779Z,53.73
2022-08-26T15:14:23.994Z,53.19
2022-08-26T15:16:53.218Z,53.66
2022-08-26T15:19:21.159Z,53.78
2022-08-26T15:21:50.970Z,53.50
2022-08-26T15:24:20.140Z,53.76
2022-08-26T15:26:48.192Z,53.99
2022-08-26T15:29:16.182Z,53.92
2022-08-26T15:31:44.183Z,54.17
2022-08-26T15:34:16.518Z,54.21
2022-08-26T15:36:46.231Z,54.46
2022-08-26T15:39:16.208Z,54.19
2022-08-26T15:41:44.237Z,54.20
2022-08-26T15:44:12.276Z,54.25
2022-08-26T15:46:40.331Z,54.52
2022-08-26T15:49:08.355Z,54.47
2022-08-26T15:51:46.272Z,54.78
2022-08-26T15:54:16.017Z,54.90
2022-08-26T15:56:44.002Z,55.03
2022-08-26T15:59:12.613Z,54.95
2022-08-26T16:01:40.620Z,54.81
2022-08-26T16:04:08.625Z,55.10
2022-08-26T16:06:37.529Z,55.03
2022-08-26T16:09:05.581Z,55.30
2022-08-26T16:11:35.935Z,55.30
2022-08-26T16:14:04.540Z,55.43
2022-08-26T16:16:33.170Z,55.40
2022-08-26T16:19:06.864Z,55.38
2022-08-26T16:21:35.573Z,55.64
2022-08-26T16:24:04.054Z,55.42
2022-08-26T16:26:33.297Z,55.51
2022-08-26T16:29:04.425Z,55.99
2022-08-26T16:31:32.435Z,55.83
2022-08-26T16:34:00.477Z,55.76
2022-08-26T16:36:28.419Z,55.83
2022-08-26T16:38:56.526Z,55.95
2022-08-26T16:41:24.932Z,55.88
2022-08-26T16:43:52.942Z,56.34
2022-08-26T16:46:23.763Z,56.14
2022-08-26T16:48:52.387Z,56.29
2022-08-26T16:51:22.943Z,56.09
2022-08-26T16:53:51.110Z,56.24
2022-08-26T16:56:20.105Z,56.56
2022-08-26T16:58:48.376Z,56.37
2022-08-26T17:01:16.431Z,56.48
2022-08-26T17:03:45.801Z,56.57
2022-08-26T17:06:13.826Z,56.65
2022-08-26T17:08:41.911Z,56.72
2022-08-26T17:11:09.984Z,56.58
2022-08-26T17:13:39.259Z,56.71
2022-08-26T17:16:08.252Z,56.52
2022-08-26T17:18:36.607Z,56.95
2022-08-26T17:21:08.402Z,56.90
2022-08-26T17:23:36.601Z,56.87
2022-08-26T17:26:05.060Z,57.33
2022-08-26T17:28:33.144Z,57.03
2022-08-26T17:31:01.452Z,57.08
2022-08-26T17:33:29.480Z,57.27
2022-08-26T17:35:57.605Z,57.11
2022-08-26T17:38:29.190Z,57.18
2022-08-26T17:40:57.576Z,57.11
2022-08-26T17:43:26.796Z,57.21
2022-08-26T17:45:59.045Z,57.21
2022-08-26T17:48:35.296Z,57.24
2022-08-26T17:51:07.669Z,57.17
2022-08-26T17:53:37.387Z,57.31
2022-08-26T17:56:08.167Z,57.29
2022-08-26T17:58:36.210Z,57.60
2022-08-26T18:01:05.982Z,57.49
2022-08-26T18:03:34.268Z,57.37
2022-08-26T18:06:02.242Z,57.51
2022-08-26T18:08:30.307Z,57.78
2022-08-26T18:10:59.934Z,57.38
2022-08-26T18:13:28.113Z,57.42
2022-08-26T18:15:56.196Z,57.58
2022-08-26T18:18:24.238Z,57.42
2022-08-26T18:20:56.856Z,57.96
2022-08-26T18:23:31.305Z,57.34
2022-08-26T18:26:00.966Z,57.86
2022-08-26T18:28:28.936Z,57.71
2022-08-26T18:30:57.527Z,57.77
2022-08-26T18:33:25.661Z,57.67
2022-08-26T18:35:53.818Z,57.83
2022-08-26T18:38:22.458Z,58.00
2022-08-26T18:40:50.460Z,58.03
2022-08-26T18:43:19.810Z,57.98
2022-08-26T18:45:47.938Z,58.11
2022-08-26T18:48:16.688Z,58.11
2022-08-26T18:50:47.335Z,58.30
2022-08-26T18:53:15.721Z,58.27
2022-08-26T18:55:43.701Z,58.37
2022-08-26T18:58:11.822Z,58.63
2022-08-26T19:00:41.480Z,58.19
2022-08-26T19:03:16.405Z,58.62
2022-08-26T19:05:47.050Z,58.72
2022-08-26T19:08:14.993Z,58.87
2022-08-26T19:10:43.092Z,58.93
2022-08-26T19:13:11.269Z,58.81
2022-08-26T19:15:40.327Z,59.04
2022-08-26T19:18:09.852Z,58.71
2022-08-26T19:20:42.433Z,58.74
2022-08-26T19:23:30.470Z,58.82
2022-08-26T19:25:59.233Z,59.09
2022-08-26T19:28:27.200Z,59.08
2022-08-26T19:30:55.223Z,59.19
2022-08-26T19:33:24.562Z,59.08
2022-08-26T19:35:52.961Z,59.05
2022-08-26T19:38:21.003Z,58.92
2022-08-26T19:40:49.135Z,59.27
2022-08-26T19:43:17.089Z,59.18
2022-08-26T19:45:45.090Z,59.09
2022-08-26T19:48:13.077Z,59.26
2022-08-26T19:50:42.418Z,59.15
2022-08-26T19:53:10.379Z,59.31
2022-08-26T19:55:38.385Z,59.23
2022-08-26T19:58:06.443Z,59.32
2022-08-26T20:00:35.819Z,59.07
2022-08-26T20:03:04.001Z,59.40
2022-08-26T20:05:32.056Z,59.40
2022-08-26T20:08:01.397Z,59.38
2022-08-26T20:10:29.380Z,59.44
2022-08-26T20:12:57.344Z,59.24
2022-08-26T20:15:25.627Z,59.15
2022-08-26T20:17:58.336Z,59.36
2022-08-26T20:20:43.731Z,59.66
2022-08-26T20:23:13.372Z,59.58
2022-08-26T20:25:42.862Z,59.55
2022-08-26T20:28:11.133Z,59.62
2022-08-26T20:30:39.593Z,59.66
2022-08-26T20:33:07.786Z,59.50
2022-08-26T20:35:35.747Z,59.36
2022-08-26T20:38:04.097Z,59.71
2022-08-26T20:40:33.552Z,59.70
2022-08-26T20:43:01.789Z,59.74
2022-08-26T20:45:29.955Z,59.57
2022-08-26T20:47:57.971Z,59.50
2022-08-26T20:50:25.971Z,59.96
2022-08-26T20:52:54.377Z,59.97
2022-08-26T20:55:22.350Z,59.92
2022-08-26T20:57:51.984Z,59.84
2022-08-26T21:00:22.709Z,59.66
2022-08-26T21:02:54.475Z,59.57
2022-08-26T21:05:22.464Z,59.71
2022-08-26T21:07:50.463Z,59.66
2022-08-26T21:10:18.632Z,59.44
2022-08-26T21:12:46.627Z,59.52
2022-08-26T21:15:16.466Z,60.01
2022-08-26T21:17:44.379Z,59.63
2022-08-26T21:20:12.346Z,59.84
2022-08-26T21:22:40.316Z,59.63
2022-08-26T21:25:09.376Z,59.93
2022-08-26T21:27:37.546Z,59.87
2022-08-26T21:30:06.068Z,59.92
2022-08-26T21:32:35.596Z,59.87
2022-08-26T21:35:03.707Z,60.10
2022-08-26T21:37:31.628Z,60.30
2022-08-26T21:40:01.919Z,60.05
2022-08-26T21:42:33.055Z,60.00
2022-08-26T21:45:01.157Z,59.91
2022-08-26T21:47:29.119Z,60.35
2022-08-26T21:49:58.543Z,60.04
2022-08-26T21:52:26.502Z,59.84
2022-08-26T21:54:58.082Z,60.02
2022-08-26T21:57:26.422Z,60.13
2022-08-26T21:59:54.354Z,60.43
2022-08-26T22:02:22.654Z,60.19
2022-08-26T22:04:50.634Z,60.10
2022-08-26T22:07:21.288Z,60.31
2022-08-26T22:09:49.709Z,60.12
2022-08-26T22:12:19.093Z,60.06
2022-08-26T22:14:47.124Z,60.46
2022-08-26T22:17:15.961Z,60.29
2022-08-26T22:19:46.223Z,60.50
2022-08-26T22:22:14.760Z,60.00
2022-08-26T22:24:44.402Z,60.21
2022-08-26T22:27:13.057Z,59.91
2022-08-26T22:29:41.126Z,60.07
2022-08-26T22:32:09.100Z,59.96
2022-08-26T22:34:37.107Z,60.06
2022-08-26T22:37:05.310Z,60.15
2022-08-26T22:39:33.355Z,60.07
2022-08-26T22:42:03.683Z,60.08
2022-08-26T22:44:32.115Z,60.35
2022-08-26T22:47:00.072Z,60.07
2022-08-26T22:49:28.483Z,60.18
2022-08-26T22:51:56.656Z,60.14
2022-08-26T22:54:24.626Z,60.17
2022-08-26T22:56:52.821Z,59.85
2022-08-26T22:59:22.306Z,59.97
2022-08-26T23:01:50.249Z,59.98
2022-08-26T23:04:18.672Z,60.24
2022-08-26T23:06:47.759Z,59.96
2022-08-26T23:09:17.930Z,60.34
2022-08-26T23:11:46.233Z,59.75
2022-08-26T23:14:14.204Z,59.73
2022-08-26T23:16:43.556Z,60.05
2022-08-26T23:19:12.072Z,60.27
2022-08-26T23:21:40.140Z,59.85
2022-08-26T23:24:08.339Z,60.19
2022-08-26T23:26:36.442Z,59.98
2022-08-26T23:29:04.975Z,60.24
2022-08-26T23:31:33.397Z,59.91
2022-08-26T23:34:20.171Z,60.16
2022-08-26T23:36:48.477Z,60.36
2022-08-26T23:39:16.469Z,59.96
2022-08-26T23:41:44.433Z,60.05
2022-08-26T23:44:12.572Z,60.01
2022-08-26T23:46:40.510Z,59.87
2022-08-26T23:49:09.831Z,60.32
2022-08-26T23:51:56.028Z,60.32
2022-08-26T23:54:24.227Z,60.32
2022-08-26T23:56:52.155Z,60.14
2022-08-26T23:59:20.065Z,60.15
